createdAt,value
2022-10-05T00:01:47.165Z,14.23
2022-10-05T00:04:17.286Z,13.63
2022-10-05T00:06:57.281Z,11.48
2022-10-05T00:09:23.965Z,12.18
2022-10-05T00:11:51.098Z,12.43
2022-10-05T00:14:27.686Z,11.03
2022-10-05T00:16:55.631Z,13.55
2022-10-05T00:19:30.648Z,11.13
2022-10-05T00:22:10.367Z,12.15
2022-10-05T00:24:36.916Z,10.82
2022-10-05T00:27:14.902Z,11.97
2022-10-05T00:29:41.453Z,11.38
2022-10-05T00:32:10.431Z,13.52
2022-10-05T00:34:37.598Z,13.68
2022-10-05T00:37:05.333Z,13.10
2022-10-05T00:39:33.113Z,11.93
2022-10-05T00:42:18.450Z,11.77
2022-10-05T00:44:56.967Z,12.70
2022-10-05T00:47:23.340Z,11.80
2022-10-05T00:50:06.201Z,12.98
2022-10-05T00:52:39.792Z,13.93
2022-10-05T00:55:06.322Z,12.95
2022-10-05T00:57:58.259Z,11.40
2022-10-05T01:00:26.844Z,12.75
2022-10-05T01:03:08.882Z,11.88
2022-10-05T01:05:54.881Z,14.73
2022-10-05T01:08:47.762Z,12.80
2022-10-05T01:11:51.178Z,10.57
2022-10-05T01:14:43.628Z,13.88
2022-10-05T01:17:18.406Z,12.30
2022-10-05T01:20:01.072Z,12.53
2022-10-05T01:22:46.446Z,12.20
2022-10-05T01:25:24.828Z,11.05
2022-10-05T01:27:58.541Z,13.25
2022-10-05T01:30:25.511Z,10.80
2022-10-05T01:33:17.596Z,11.73
2022-10-05T01:36:19.634Z,11.20
2022-10-05T01:39:02.796Z,12.05
2022-10-05T01:41:37.538Z,12.18
2022-10-05T01:44:16.060Z,10.38
2022-10-05T01:47:06.994Z,13.83
2022-10-05T01:49:55.359Z,9.85
2022-10-05T01:52:54.010Z,10.27
2022-10-05T01:55:43.830Z,13.77
2022-10-05T01:58:29.049Z,13.23
2022-10-05T02:01:07.949Z,12.60
2022-10-05T02:04:42.717Z,11.00
2022-10-05T02:07:15.375Z,11.82
2022-10-05T02:09:55.331Z,13.15
2022-10-05T02:12:25.338Z,10.98
2022-10-05T02:15:00.957Z,11.17
2022-10-05T02:17:35.180Z,11.40
2022-10-05T02:20:07.334Z,12.27
2022-10-05T02:22:38.277Z,10.63
2022-10-05T02:25:13.293Z,12.77
2022-10-05T02:27:47.050Z,14.37
2022-10-05T02:30:16.848Z,13.20
2022-10-05T02:32:54.072Z,11.00
2022-10-05T02:35:21.829Z,13.52
2022-10-05T02:37:57.069Z,13.07
2022-10-05T02:40:31.418Z,13.27
2022-10-05T02:43:16.328Z,15.60
2022-10-05T02:46:13.489Z,11.80
2022-10-05T02:49:14.088Z,13.57
2022-10-05T02:51:49.506Z,12.82
2022-10-05T02:54:40.670Z,16.23
2022-10-05T02:57:33.378Z,11.55
2022-10-05T03:00:22.464Z,12.57
2022-10-05T03:03:04.158Z,15.65
2022-10-05T03:05:39.915Z,12.50
2022-10-05T03:08:26.111Z,16.03
2022-10-05T03:11:40.980Z,12.88
2022-10-05T03:14:24.126Z,11.32
2022-10-05T03:16:59.971Z,14.02
2022-10-05T03:20:04.234Z,11.35
2022-10-05T03:22:47.397Z,15.47
2022-10-05T03:25:43.011Z,10.65
2022-10-05T03:28:35.104Z,13.55
2022-10-05T03:31:35.455Z,14.13
2022-10-05T03:34:11.338Z,10.40
2022-10-05T03:36:59.484Z,11.17
2022-10-05T03:39:57.592Z,12.23
2022-10-05T03:43:12.284Z,10.63
2022-10-05T03:45:48.647Z,10.32
2022-10-05T03:48:22.675Z,16.52
2022-10-05T03:51:13.282Z,11.27
2022-10-05T03:53:48.522Z,10.88
2022-10-05T03:56:33.314Z,11.57
2022-10-05T03:59:14.687Z,10.80
2022-10-05T04:02:05.887Z,11.48
2022-10-05T04:04:40.970Z,11.83
2022-10-05T04:07:17.882Z,12.25
2022-10-05T04:09:49.788Z,9.85
2022-10-05T04:12:25.591Z,10.63
2022-10-05T04:15:00.478Z,12.63
2022-10-05T04:17:34.160Z,10.93
2022-10-05T04:20:06.121Z,10.60
2022-10-05T04:22:38.973Z,10.13
2022-10-05T04:25:22.817Z,10.73
2022-10-05T04:27:58.276Z,10.20
2022-10-05T04:30:25.215Z,10.67
2022-10-05T04:32:59.616Z,10.18
2022-10-05T04:35:52.547Z,12.18
2022-10-05T04:38:43.479Z,10.52
2022-10-05T04:41:25.369Z,12.15
2022-10-05T04:44:22.923Z,12.20
2022-10-05T04:47:10.495Z,12.05
2022-10-05T04:49:55.342Z,10.52
2022-10-05T04:52:55.319Z,11.75
2022-10-05T04:55:36.372Z,13.70
2022-10-05T04:58:16.594Z,11.80
2022-10-05T05:01:18.437Z,12.02
2022-10-05T05:04:27.867Z,15.15
2022-10-05T05:07:18.621Z,16.23
2022-10-05T05:09:55.256Z,11.77
2022-10-05T05:12:43.126Z,11.23
2022-10-05T05:15:39.938Z,13.70
2022-10-05T05:18:26.042Z,11.65
2022-10-05T05:21:08.435Z,10.52
2022-10-05T05:23:58.618Z,12.35
2022-10-05T05:26:36.754Z,16.10
2022-10-05T05:29:21.626Z,14.73
2022-10-05T05:32:00.932Z,12.82
2022-10-05T05:34:56.318Z,13.68
2022-10-05T05:37:43.730Z,11.55
2022-10-05T05:40:17.774Z,13.40
2022-10-05T05:42:52.999Z,16.20
2022-10-05T05:45:44.076Z,15.63
2022-10-05T05:48:28.602Z,15.70
2022-10-05T05:51:09.190Z,17.23
2022-10-05T05:53:48.125Z,17.47
2022-10-05T05:56:19.081Z,15.10
2022-10-05T05:59:04.955Z,16.23
2022-10-05T06:01:41.940Z,16.33
2022-10-05T06:04:31.203Z,17.55
2022-10-05T06:07:01.027Z,16.70
2022-10-05T06:09:44.679Z,15.93
2022-10-05T06:12:16.714Z,14.23
2022-10-05T06:14:49.609Z,14.88
2022-10-05T06:17:26.856Z,13.02
2022-10-05T06:20:01.212Z,17.90
2022-10-05T06:22:39.565Z,12.55
2022-10-05T06:25:12.074Z,15.75
2022-10-05T06:28:16.085Z,16.30
2022-10-05T06:31:06.198Z,13.90
2022-10-05T06:33:51.068Z,14.03
2022-10-05T06:36:20.395Z,14.85
2022-10-05T06:39:02.474Z,15.30
2022-10-05T06:41:37.896Z,14.50
2022-10-05T06:44:25.703Z,12.75
2022-10-05T06:47:16.039Z,13.53
2022-10-05T06:50:15.296Z,12.45
2022-10-05T06:52:58.755Z,11.43
2022-10-05T06:56:16.282Z,12.45
2022-10-05T06:58:48.234Z,10.70
2022-10-05T07:01:30.453Z,11.87
2022-10-05T07:04:21.337Z,11.75
2022-10-05T07:06:57.684Z,11.48
2022-10-05T07:09:45.626Z,13.27
2022-10-05T07:12:33.894Z,16.00
2022-10-05T07:15:39.428Z,13.70
2022-10-05T07:18:22.651Z,10.52
2022-10-05T07:21:07.362Z,9.77
2022-10-05T07:23:59.107Z,9.13
2022-10-05T07:26:42.536Z,7.82
2022-10-05T07:29:39.832Z,7.57
2022-10-05T07:32:21.858Z,8.98
2022-10-05T07:35:36.501Z,8.38
2022-10-05T07:38:12.766Z,8.75
2022-10-05T07:40:44.926Z,8.40
2022-10-05T07:44:00.568Z,7.47
2022-10-05T07:47:08.688Z,9.15
2022-10-05T07:50:02.380Z,9.35
2022-10-05T07:52:41.008Z,6.85
2022-10-05T07:55:25.914Z,8.40
2022-10-05T07:58:20.031Z,7.07
2022-10-05T08:01:00.368Z,9.40
2022-10-05T08:03:40.314Z,9.18
2022-10-05T08:06:12.813Z,10.80
2022-10-05T08:08:54.481Z,7.55
2022-10-05T08:11:38.139Z,8.53
2022-10-05T08:14:17.162Z,7.35
2022-10-05T08:16:48.412Z,8.82
2022-10-05T08:19:38.198Z,7.38
2022-10-05T08:22:09.779Z,9.80
2022-10-05T08:24:59.436Z,12.00
2022-10-05T08:27:57.274Z,8.68
2022-10-05T08:30:24.221Z,8.13
2022-10-05T08:33:07.434Z,8.63
2022-10-05T08:35:46.932Z,9.85
2022-10-05T08:38:19.788Z,9.13
2022-10-05T08:41:38.435Z,9.38
2022-10-05T08:44:27.872Z,7.80
2022-10-05T08:47:12.824Z,9.05
2022-10-05T08:50:07.218Z,8.52
2022-10-05T08:53:12.153Z,6.87
2022-10-05T08:56:02.280Z,7.50
2022-10-05T08:58:53.557Z,7.57
2022-10-05T09:01:57.632Z,6.07
2022-10-05T09:04:58.094Z,8.82
2022-10-05T09:07:50.848Z,8.03
2022-10-05T09:10:54.577Z,7.43
2022-10-05T09:13:44.513Z,8.65
2022-10-05T09:16:17.518Z,8.85
2022-10-05T09:19:02.169Z,7.25
2022-10-05T09:21:57.269Z,7.03
2022-10-05T09:24:48.514Z,7.60
2022-10-05T09:27:17.625Z,9.63
2022-10-05T09:30:11.634Z,6.50
2022-10-05T09:32:57.686Z,9.45
2022-10-05T09:36:02.003Z,8.60
2022-10-05T09:38:54.567Z,7.72
2022-10-05T09:41:38.147Z,9.20
2022-10-05T09:44:40.444Z,8.25
2022-10-05T09:47:09.870Z,7.57
2022-10-05T09:50:00.353Z,9.60
2022-10-05T09:52:47.257Z,6.93
2022-10-05T09:55:43.109Z,9.38
2022-10-05T09:58:13.255Z,8.40
2022-10-05T10:01:09.100Z,7.13
2022-10-05T10:04:24.601Z,8.43
2022-10-05T10:07:32.382Z,7.28
2022-10-05T10:10:07.917Z,7.38
2022-10-05T10:13:12.666Z,7.88
2022-10-05T10:16:07.187Z,6.43
2022-10-05T10:18:50.569Z,7.40
2022-10-05T10:21:45.538Z,6.53
2022-10-05T10:24:24.161Z,8.40
2022-10-05T10:27:16.551Z,7.50
2022-10-05T10:29:43.012Z,7.15
2022-10-05T10:32:25.158Z,7.63
2022-10-05T10:34:57.526Z,8.32
2022-10-05T10:38:04.796Z,6.40
2022-10-05T10:40:47.530Z,8.68
2022-10-05T10:43:35.120Z,9.15
2022-10-05T10:46:44.680Z,7.67
2022-10-05T10:49:45.763Z,9.80
2022-10-05T10:52:37.283Z,7.22
2022-10-05T10:55:24.941Z,7.07
2022-10-05T10:58:03.580Z,7.75
2022-10-05T11:00:49.146Z,9.43
2022-10-05T11:04:00.614Z,7.55
2022-10-05T11:06:45.189Z,8.63
2022-10-05T11:09:30.428Z,6.72
2022-10-05T11:12:11.242Z,7.28
2022-10-05T11:15:08.590Z,8.53
2022-10-05T11:17:37.970Z,7.15
2022-10-05T11:20:29.356Z,7.10
2022-10-05T11:23:22.728Z,6.35
2022-10-05T11:26:18.631Z,7.53
2022-10-05T11:29:09.975Z,7.30
2022-10-05T11:31:37.827Z,7.47
2022-10-05T11:34:38.474Z,6.88
2022-10-05T11:37:36.265Z,8.30
2022-10-05T11:40:24.837Z,9.63
2022-10-05T11:43:00.164Z,7.67
2022-10-05T11:45:36.246Z,8.18
2022-10-05T11:48:24.586Z,9.20
2022-10-05T11:51:17.289Z,10.98
2022-10-05T11:54:19.225Z,7.63
2022-10-05T11:56:54.850Z,7.60
2022-10-05T11:59:34.833Z,8.50
2022-10-05T12:02:17.203Z,8.13
2022-10-05T12:05:21.896Z,8.30
2022-10-05T12:08:11.174Z,8.10
2022-10-05T12:11:02.621Z,6.70
2022-10-05T12:13:29.686Z,7.10
2022-10-05T12:16:03.786Z,7.85
2022-10-05T12:18:32.561Z,7.47
2022-10-05T12:21:05.275Z,6.80
2022-10-05T12:23:51.814Z,6.70
2022-10-05T12:26:30.582Z,6.70
2022-10-05T12:29:06.791Z,8.23
2022-10-05T12:31:57.648Z,8.00
2022-10-05T12:34:42.221Z,7.22
2022-10-05T12:37:31.924Z,9.17
2022-10-05T12:40:06.207Z,7.95
2022-10-05T12:42:51.174Z,7.70
2022-10-05T12:45:43.402Z,7.00
2022-10-05T12:48:34.729Z,7.60
2022-10-05T12:51:13.311Z,6.23
2022-10-05T12:53:55.467Z,9.20
2022-10-05T12:56:42.594Z,6.68
2022-10-05T12:59:31.781Z,6.75
2022-10-05T13:02:18.203Z,8.35
2022-10-05T13:05:10.984Z,8.73
2022-10-05T13:07:55.817Z,7.30
2022-10-05T13:10:58.868Z,8.60
2022-10-05T13:13:41.500Z,8.48
2022-10-05T13:16:38.390Z,7.40
2022-10-05T13:19:22.884Z,8.73
2022-10-05T13:22:16.693Z,8.20
2022-10-05T13:24:59.227Z,7.85
2022-10-05T13:27:36.847Z,8.30
2022-10-05T13:30:18.629Z,6.68
2022-10-05T13:32:54.327Z,7.97
2022-10-05T13:35:40.174Z,6.63
2022-10-05T13:38:31.863Z,6.60
2022-10-05T13:41:28.037Z,6.75
2022-10-05T13:44:28.574Z,6.82
2022-10-05T13:47:04.380Z,8.17
2022-10-05T13:49:37.043Z,6.60
2022-10-05T13:52:19.851Z,7.40
2022-10-05T13:54:58.066Z,7.55
2022-10-05T13:57:33.397Z,6.80
2022-10-05T14:00:15.680Z,8.47
2022-10-05T14:02:47.141Z,6.88
2022-10-05T14:05:30.149Z,7.75
2022-10-05T14:08:02.650Z,7.80
2022-10-05T14:10:41.842Z,6.65
2022-10-05T14:13:42.383Z,7.07
2022-10-05T14:16:25.426Z,5.80
2022-10-05T14:19:06.467Z,6.28
2022-10-05T14:21:47.190Z,6.65
2022-10-05T14:24:50.478Z,7.47
2022-10-05T14:27:33.183Z,5.80
2022-10-05T14:30:18.095Z,10.88
2022-10-05T14:33:08.265Z,15.35
2022-10-05T14:35:49.183Z,9.63
2022-10-05T14:38:25.616Z,7.35
2022-10-05T14:41:10.635Z,6.93
2022-10-05T14:43:37.927Z,7.53
2022-10-05T14:46:25.326Z,7.43
2022-10-05T14:49:17.103Z,7.45
2022-10-05T14:51:43.763Z,8.15
2022-10-05T14:54:52.293Z,7.70
2022-10-05T14:57:43.520Z,7.93
2022-10-05T15:00:17.630Z,7.72
2022-10-05T15:02:56.021Z,6.57
2022-10-05T15:05:31.287Z,7.38
2022-10-05T15:08:45.120Z,10.33
2022-10-05T15:11:35.726Z,6.63
2022-10-05T15:14:11.999Z,9.52
2022-10-05T15:16:40.482Z,7.85
2022-10-05T15:19:17.877Z,10.45
2022-10-05T15:22:03.146Z,6.57
2022-10-05T15:25:01.579Z,10.32
2022-10-05T15:28:09.533Z,7.80
2022-10-05T15:31:01.638Z,14.35
2022-10-05T15:33:38.037Z,8.73
2022-10-05T15:36:13.571Z,8.70
2022-10-05T15:38:59.539Z,8.25
2022-10-05T15:42:00.219Z,7.72
2022-10-05T15:45:14.249Z,8.57
2022-10-05T15:47:51.839Z,7.00
2022-10-05T15:50:28.344Z,8.63
2022-10-05T15:53:18.452Z,9.18
2022-10-05T15:55:51.039Z,6.68
2022-10-05T15:58:18.045Z,7.20
2022-10-05T16:00:50.310Z,6.40
2022-10-05T16:03:26.088Z,7.10
2022-10-05T16:06:35.691Z,6.65
2022-10-05T16:09:41.059Z,6.80
2022-10-05T16:12:16.212Z,6.53
2022-10-05T16:15:03.674Z,7.18
2022-10-05T16:17:57.701Z,8.63
2022-10-05T16:20:46.338Z,9.40
2022-10-05T16:23:21.788Z,7.53
2022-10-05T16:26:04.353Z,7.63
2022-10-05T16:28:44.685Z,7.75
2022-10-05T16:31:34.596Z,7.77
2022-10-05T16:34:17.215Z,8.40
2022-10-05T16:37:12.728Z,8.32
2022-10-05T16:40:00.707Z,9.57
2022-10-05T16:42:39.398Z,9.93
2022-10-05T16:45:45.110Z,8.67
2022-10-05T16:48:24.117Z,8.68
2022-10-05T16:51:28.363Z,9.63
2022-10-05T16:54:01.930Z,8.98
2022-10-05T16:56:37.539Z,9.25
2022-10-05T16:59:32.158Z,9.43
2022-10-05T17:02:17.998Z,9.30
2022-10-05T17:05:17.833Z,10.50
2022-10-05T17:08:00.978Z,12.00
2022-10-05T17:11:03.736Z,13.38
2022-10-05T17:13:43.492Z,12.63
2022-10-05T17:16:27.363Z,11.98
2022-10-05T17:19:24.542Z,13.57
2022-10-05T17:22:03.117Z,13.18
2022-10-05T17:24:35.609Z,13.73
2022-10-05T17:27:18.166Z,16.20
2022-10-05T17:30:18.445Z,22.33
2022-10-05T17:32:55.518Z,19.98
2022-10-05T17:35:51.780Z,21.42
2022-10-05T17:38:22.989Z,17.73
2022-10-05T17:41:11.480Z,17.00
2022-10-05T17:43:38.439Z,13.85
2022-10-05T17:46:38.135Z,13.43
2022-10-05T17:49:17.629Z,13.10
2022-10-05T17:52:02.598Z,13.63
2022-10-05T17:54:51.240Z,11.60
2022-10-05T17:57:19.652Z,9.88
2022-10-05T17:59:53.421Z,11.00
2022-10-05T18:02:19.889Z,9.18
2022-10-05T18:05:15.070Z,9.32
2022-10-05T18:07:48.091Z,8.43
2022-10-05T18:10:27.681Z,8.00
2022-10-05T18:12:59.920Z,14.50
2022-10-05T18:15:26.392Z,10.00
2022-10-05T18:18:20.158Z,9.07
2022-10-05T18:21:12.160Z,9.63
2022-10-05T18:23:48.918Z,10.77
2022-10-05T18:26:30.611Z,10.00
2022-10-05T18:29:35.952Z,11.65
2022-10-05T18:32:15.587Z,10.98
2022-10-05T18:35:02.221Z,10.17
2022-10-05T18:38:17.161Z,11.68
2022-10-05T18:40:49.753Z,10.85
2022-10-05T18:43:52.458Z,10.32
2022-10-05T18:46:21.899Z,10.43
2022-10-05T18:49:10.636Z,11.63
2022-10-05T18:52:01.802Z,10.88
2022-10-05T18:54:39.803Z,12.48
2022-10-05T18:57:53.826Z,11.88
2022-10-05T19:00:23.171Z,11.32
2022-10-05T19:02:57.161Z,10.17
2022-10-05T19:05:51.217Z,12.43
2022-10-05T19:08:29.327Z,11.05
2022-10-05T19:11:06.241Z,10.52
2022-10-05T19:13:33.340Z,11.23
2022-10-05T19:16:41.606Z,10.53
2022-10-05T19:19:29.325Z,10.15
2022-10-05T19:22:30.965Z,12.23
2022-10-05T19:25:21.585Z,12.25
2022-10-05T19:27:56.719Z,9.88
2022-10-05T19:30:27.586Z,10.40
2022-10-05T19:33:18.897Z,10.77
2022-10-05T19:35:58.801Z,11.07
2022-10-05T19:39:10.643Z,10.93
2022-10-05T19:41:47.351Z,10.88
2022-10-05T19:44:25.313Z,10.50
2022-10-05T19:47:29.532Z,10.18
2022-10-05T19:49:55.981Z,9.85
2022-10-05T19:52:36.496Z,9.40
2022-10-05T19:55:12.243Z,10.52
2022-10-05T19:57:52.041Z,10.27
2022-10-05T20:00:33.857Z,10.98
2022-10-05T20:03:23.475Z,7.68
2022-10-05T20:05:53.950Z,9.63
2022-10-05T20:08:22.019Z,8.93
2022-10-05T20:11:27.166Z,9.00
2022-10-05T20:13:53.673Z,9.68
2022-10-05T20:16:45.445Z,8.68
2022-10-05T20:19:46.041Z,8.30
2022-10-05T20:22:40.780Z,8.68
2022-10-05T20:25:19.245Z,8.13
2022-10-05T20:27:50.204Z,10.80
2022-10-05T20:30:19.130Z,8.45
2022-10-05T20:32:50.211Z,9.23
2022-10-05T20:35:18.580Z,8.77
2022-10-05T20:37:45.145Z,10.03
2022-10-05T20:40:12.119Z,10.15
2022-10-05T20:42:38.645Z,9.80
2022-10-05T20:45:06.345Z,11.80
2022-10-05T20:47:33.659Z,10.15
2022-10-05T20:50:01.440Z,11.47
2022-10-05T20:52:27.980Z,8.82
2022-10-05T20:54:59.251Z,8.88
2022-10-05T20:57:26.529Z,8.95
2022-10-05T20:59:53.548Z,10.25
2022-10-05T21:02:20.348Z,9.73
2022-10-05T21:04:47.686Z,8.05
2022-10-05T21:07:16.567Z,9.55
2022-10-05T21:09:44.624Z,7.47
2022-10-05T21:12:11.438Z,8.15
2022-10-05T21:14:38.335Z,8.33
2022-10-05T21:17:06.172Z,7.65
2022-10-05T21:19:38.137Z,7.57
2022-10-05T21:22:07.549Z,7.75
2022-10-05T21:24:35.999Z,7.65
2022-10-05T21:27:03.240Z,7.60
2022-10-05T21:29:30.378Z,7.45
2022-10-05T21:31:57.302Z,7.38
2022-10-05T21:34:24.534Z,7.32
2022-10-05T21:36:51.093Z,7.05
2022-10-05T21:39:17.895Z,7.53
2022-10-05T21:41:44.510Z,7.88
2022-10-05T21:44:11.049Z,8.68
2022-10-05T21:46:38.397Z,9.30
2022-10-05T21:49:09.370Z,8.98
2022-10-05T21:51:36.890Z,10.60
2022-10-05T21:54:19.149Z,8.30
2022-10-05T21:56:49.874Z,7.88
2022-10-05T21:59:19.750Z,8.85
2022-10-05T22:01:46.380Z,7.60
2022-10-05T22:04:13.967Z,7.27
2022-10-05T22:06:40.725Z,8.38
2022-10-05T22:09:07.303Z,7.72
2022-10-05T22:11:33.886Z,7.28
2022-10-05T22:14:03.106Z,7.78
2022-10-05T22:16:32.902Z,7.80
2022-10-05T22:19:03.782Z,7.25
2022-10-05T22:21:32.183Z,7.18
2022-10-05T22:24:01.604Z,8.27
2022-10-05T22:26:28.185Z,7.95
2022-10-05T22:28:57.617Z,7.63
2022-10-05T22:31:24.227Z,7.60
2022-10-05T22:33:51.282Z,7.72
2022-10-05T22:36:18.529Z,7.82
2022-10-05T22:38:46.549Z,7.45
2022-10-05T22:41:14.948Z,6.93
2022-10-05T22:43:41.397Z,7.93
2022-10-05T22:46:12.303Z,8.02
2022-10-05T22:48:39.733Z,8.73
2022-10-05T22:51:06.400Z,7.93
2022-10-05T22:53:33.994Z,8.53
2022-10-05T22:56:05.498Z,8.65
2022-10-05T22:58:31.986Z,7.50
2022-10-05T23:01:06.240Z,6.22
2022-10-05T23:03:33.576Z,7.40
2022-10-05T23:06:03.631Z,6.70
2022-10-05T23:08:34.323Z,7.05
2022-10-05T23:11:09.081Z,8.00
2022-10-05T23:13:35.641Z,8.07
2022-10-05T23:16:16.588Z,7.13
2022-10-05T23:18:43.580Z,7.77
2022-10-05T23:21:11.514Z,7.35
2022-10-05T23:23:39.899Z,9.60
2022-10-05T23:26:09.752Z,6.82
2022-10-05T23:28:38.349Z,7.03
2022-10-05T23:31:07.473Z,8.03
2022-10-05T23:33:35.353Z,7.30
2022-10-05T23:36:16.700Z,8.23
2022-10-05T23:38:43.916Z,9.18
2022-10-05T23:41:11.074Z,8.18
2022-10-05T23:43:39.219Z,8.23
2022-10-05T23:46:07.196Z,7.40
2022-10-05T23:48:37.901Z,8.63
2022-10-05T23:51:09.618Z,6.82
2022-10-05T23:53:36.278Z,8.30
2022-10-05T23:56:03.194Z,7.40
2022-10-05T23:58:30.096Z,7.32
